Time;durP1;ratioP1;P1;durP2;ratioP2;P2;SDS_P1;SDS_P2;PMS_P1;PMS_P2;Temp;Humidity;BMP_temperature;BMP_pressure;BME280_temperature;BME280_humidity;BME280_pressure;Samples;Min_cycle;Max_cycle;Signal;HPM_P1;HPM_P2
2021/07/06 00:04:10;;;;;;;2.10;0.52;;;26.30;38.30;;;;;;20248560;28;80453;-71
2021/07/06 00:14:12;;;;;;;3.60;0.75;;;26.30;38.10;;;;;;20225714;28;81936;-70
2021/07/06 00:24:13;;;;;;;4.85;0.60;;;26.20;38.50;;;;;;20252121;28;81057;-71
2021/07/06 00:34:15;;;;;;;1.77;0.65;;;26.20;38.20;;;;;;20254685;28;81826;-70
2021/07/06 00:44:19;;;;;;;1.33;0.47;;;26.00;37.90;;;;;;20280456;28;80711;-70
2021/07/06 00:54:21;;;;;;;1.65;0.68;;;26.00;38.00;;;;;;20222793;28;80919;-71
2021/07/06 01:04:23;;;;;;;1.88;0.80;;;26.00;39.00;;;;;;20261309;28;80639;-71
2021/07/06 01:14:25;;;;;;;2.13;0.98;;;25.90;39.70;;;;;;20230442;28;80649;-71
2021/07/06 01:24:27;;;;;;;5.72;1.30;;;25.80;40.30;;;;;;20239698;28;80598;-70
2021/07/06 01:34:32;;;;;;;2.72;0.80;;;25.70;41.00;;;;;;20245769;28;80783;-72
2021/07/06 01:44:35;;;;;;;3.35;1.08;;;25.50;41.80;;;;;;20246548;28;80681;-72
2021/07/06 01:54:41;;;;;;;2.90;1.00;;;25.30;41.80;;;;;;20272584;28;80445;-71
2021/07/06 02:04:45;;;;;;;1.80;0.80;;;25.10;41.90;;;;;;20265393;28;80768;-71
2021/07/06 02:14:50;;;;;;;2.53;0.85;;;25.00;41.90;;;;;;20243388;28;81285;-71
2021/07/06 02:24:53;;;;;;;1.83;0.80;;;24.90;42.30;;;;;;20243371;28;80703;-70
2021/07/06 02:34:54;;;;;;;2.03;0.70;;;24.60;42.50;;;;;;20284094;28;80371;-71
2021/07/06 02:44:59;;;;;;;2.83;1.00;;;24.40;42.70;;;;;;20245994;28;80639;-70
2021/07/06 02:55:06;;;;;;;3.05;0.73;;;24.30;43.40;;;;;;20248703;28;80947;-70
2021/07/06 03:05:11;;;;;;;2.78;0.70;;;24.20;43.20;;;;;;20245493;28;80850;-71
2021/07/06 03:15:21;;;;;;;3.47;0.93;;;24.10;43.20;;;;;;20291420;28;80125;-70
2021/07/06 03:25:29;;;;;;;5.75;0.57;;;24.00;43.70;;;;;;20280638;28;80753;-71
2021/07/06 03:35:32;;;;;;;2.00;0.63;;;23.90;44.20;;;;;;20231275;28;81130;-70
2021/07/06 03:45:41;;;;;;;3.17;0.70;;;23.70;44.50;;;;;;20244346;28;80955;-71
2021/07/06 03:55:49;;;;;;;2.85;0.65;;;23.50;44.90;;;;;;20248727;28;81570;-71
2021/07/06 04:05:57;;;;;;;57.10;33.55;;;23.50;45.40;;;;;;20216245;28;80770;-70
2021/07/06 04:16:04;;;;;;;2.97;1.00;;;23.50;45.90;;;;;;20203160;28;84029;-68
2021/07/06 04:26:08;;;;;;;2.80;0.52;;;23.50;46.00;;;;;;20206055;28;83428;-70
2021/07/06 04:36:15;;;;;;;3.30;0.80;;;23.40;46.50;;;;;;20233514;28;81526;-68
2021/07/06 04:46:20;;;;;;;2.78;0.55;;;23.20;47.30;;;;;;20230174;28;80825;-68
2021/07/06 04:56:27;;;;;;;2.55;0.60;;;23.20;47.30;;;;;;20250564;28;81441;-68
2021/07/06 05:06:30;;;;;;;1.17;0.60;;;23.20;47.70;;;;;;20223629;28;80563;-70
2021/07/06 05:16:35;;;;;;;9.93;2.78;;;23.20;48.00;;;;;;20235232;28;81440;-71
2021/07/06 05:26:40;;;;;;;3.40;0.60;;;23.10;48.40;;;;;;20246258;28;80684;-71
2021/07/06 05:36:43;;;;;;;5.32;0.82;;;23.20;48.30;;;;;;20216552;28;80646;-71
2021/07/06 05:46:46;;;;;;;6.45;1.23;;;23.20;48.40;;;;;;20258270;28;80652;-72
2021/07/06 05:56:48;;;;;;;5.05;1.15;;;23.10;48.70;;;;;;20246530;28;80456;-71
2021/07/06 06:06:50;;;;;;;4.63;0.90;;;23.20;48.70;;;;;;20247333;28;81524;-72
2021/07/06 06:16:52;;;;;;;3.95;0.88;;;23.30;48.30;;;;;;20256996;28;80665;-72
2021/07/06 06:26:54;;;;;;;;;;;23.30;48.20;;;;;;20233588;28;81368;-72
2021/07/06 06:36:56;;;;;;;3.00;1.40;;;23.40;48.10;;;;;;20255691;28;80634;-70
2021/07/06 06:46:58;;;;;;;3.22;0.70;;;23.60;48.10;;;;;;20266496;28;80723;-71
2021/07/06 06:57:01;;;;;;;5.07;1.05;;;23.70;48.20;;;;;;20247687;28;80902;-70
2021/07/06 07:07:03;;;;;;;3.22;1.05;;;23.60;48.60;;;;;;20223176;28;83870;-71
2021/07/06 07:17:06;;;;;;;13.70;6.47;;;23.60;48.70;;;;;;20206774;28;80776;-70
2021/07/06 07:27:09;;;;;;;7.70;4.22;;;23.70;49.10;;;;;;20222870;28;80109;-74
2021/07/06 07:37:13;;;;;;;3.45;1.25;;;23.80;48.80;;;;;;20250976;28;81148;-72
2021/07/06 07:47:16;;;;;;;2.28;0.80;;;23.70;49.30;;;;;;20245127;28;81104;-73
2021/07/06 07:57:25;;;;;;;3.38;1.42;;;23.70;49.20;;;;;;20227007;28;80265;-71
2021/07/06 08:07:28;;;;;;;6.55;1.30;;;23.70;49.60;;;;;;20235396;28;81848;-72
2021/07/06 08:17:30;;;;;;;5.88;1.30;;;23.70;49.50;;;;;;20209988;28;81820;-72
2021/07/06 08:27:33;;;;;;;3.40;1.00;;;23.70;49.70;;;;;;20220627;28;81091;-72
2021/07/06 08:37:35;;;;;;;4.50;0.80;;;23.80;50.00;;;;;;20221294;28;80691;-72
2021/07/06 08:47:42;;;;;;;2.40;0.90;;;23.90;50.00;;;;;;20257166;28;81279;-72
2021/07/06 08:57:45;;;;;;;2.90;0.90;;;24.60;48.90;;;;;;20203240;28;80217;-72
2021/07/06 09:07:48;;;;;;;2.30;0.75;;;25.30;47.10;;;;;;20234492;28;80965;-71
2021/07/06 09:18:15;;;;;;;1.80;0.80;;;25.30;47.00;;;;;;20251197;28;80968;-72
2021/07/06 09:28:24;;;;;;;1.35;0.68;;;25.00;47.40;;;;;;20224246;28;81174;-71
2021/07/06 09:38:27;;;;;;;19.73;12.85;;;24.90;47.60;;;;;;20224918;28;80088;-71
2021/07/06 09:48:33;;;;;;;2.72;1.30;;;25.00;47.20;;;;;;20187709;28;83892;-70
2021/07/06 09:58:56;;;;;;;5.05;0.73;;;25.20;46.90;;;;;;20217402;28;83923;-72
2021/07/06 10:08:58;;;;;;;3.55;0.57;;;25.50;46.20;;;;;;20246530;28;80788;-71
2021/07/06 10:19:00;;;;;;;3.53;0.75;;;25.40;45.90;;;;;;20198530;28;80894;-71
2021/07/06 10:29:03;;;;;;;3.47;1.00;;;25.40;46.30;;;;;;20218582;28;80994;-70
2021/07/06 10:39:06;;;;;;;;;;;25.30;48.20;;;;;;20227661;28;80936;-71
2021/07/06 10:49:14;;;;;;;3.10;1.00;;;25.20;50.00;;;;;;20261114;28;80394;-70
2021/07/06 10:59:35;;;;;;;4.20;1.20;;;25.00;50.80;;;;;;20230909;28;81372;-71
2021/07/06 11:09:37;;;;;;;4.25;0.95;;;25.10;50.20;;;;;;20207024;28;81242;-71
2021/07/06 11:19:43;;;;;;;2.53;0.70;;;25.20;51.00;;;;;;20222085;28;80236;-70
2021/07/06 11:29:45;;;;;;;4.93;1.08;;;25.30;50.50;;;;;;20222061;28;82061;-70
2021/07/06 11:39:50;;;;;;;3.53;0.98;;;25.20;50.30;;;;;;20235651;28;81272;-71
2021/07/06 11:49:52;;;;;;;2.65;0.88;;;25.20;50.40;;;;;;20244294;28;80742;-71
2021/07/06 11:59:54;;;;;;;3.22;1.35;;;24.90;53.20;;;;;;20230665;28;81674;-71
2021/07/06 12:10:02;;;;;;;1.92;1.10;;;24.80;53.20;;;;;;20236125;28;81388;-71
2021/07/06 12:20:16;;;;;;;4.18;1.58;;;24.80;53.50;;;;;;20212185;28;81031;-79
2021/07/06 12:30:17;;;;;;;3.83;1.30;;;24.80;52.70;;;;;;20237978;28;80509;-70
2021/07/06 12:40:19;;;;;;;1.80;0.90;;;24.70;52.60;;;;;;20226005;28;81002;-69
2021/07/06 12:50:26;;;;;;;1.65;0.70;;;24.70;52.80;;;;;;20230202;28;81670;-73
2021/07/06 13:00:28;;;;;;;37.38;22.85;;;24.60;52.80;;;;;;20226042;28;80935;-72
2021/07/06 13:10:34;;;;;;;3.22;1.30;;;24.70;53.60;;;;;;20210039;28;82989;-73
2021/07/06 13:20:39;;;;;;;5.35;1.48;;;24.70;54.80;;;;;;20228738;28;83188;-72
2021/07/06 13:30:42;;;;;;;5.68;1.90;;;24.50;56.10;;;;;;20241302;28;80583;-72
2021/07/06 13:40:45;;;;;;;4.43;1.30;;;24.30;57.60;;;;;;20232403;28;81002;-73
2021/07/06 13:50:47;;;;;;;1.90;1.17;;;23.90;58.00;;;;;;20232740;28;81085;-72
2021/07/06 14:00:49;;;;;;;2.70;0.75;;;23.90;58.00;;;;;;20236813;28;81856;-73
2021/07/06 14:10:52;;;;;;;3.25;0.80;;;23.70;57.60;;;;;;20230127;28;80586;-72
2021/07/06 14:20:53;;;;;;;3.35;1.50;;;23.60;57.00;;;;;;20220828;28;81021;-72
2021/07/06 14:30:55;;;;;;;5.28;1.33;;;23.50;57.20;;;;;;20218461;28;81187;-72
2021/07/06 14:40:57;;;;;;;4.30;1.38;;;23.50;57.30;;;;;;20252982;28;80675;-73
2021/07/06 14:50:59;;;;;;;3.58;0.90;;;23.50;57.70;;;;;;20253686;28;80540;-72
2021/07/06 15:01:00;;;;;;;;;;;23.50;56.60;;;;;;20240916;28;81001;-71
2021/07/06 15:11:02;;;;;;;5.18;0.93;;;23.60;56.40;;;;;;20261376;28;80672;-71
2021/07/06 15:21:04;;;;;;;2.17;0.93;;;23.80;56.10;;;;;;20213566;28;80429;-71
2021/07/06 15:31:06;;;;;;;3.60;0.70;;;23.90;54.70;;;;;;20226843;28;80936;-71
2021/07/06 15:41:08;;;;;;;2.45;0.50;;;24.00;54.30;;;;;;20234032;28;80872;-70
2021/07/06 15:51:10;;;;;;;3.72;1.40;;;24.20;53.10;;;;;;20233219;28;80778;-69
2021/07/06 16:01:11;;;;;;;;;;;24.30;52.00;;;;;;20261543;28;80593;-70
2021/07/06 16:11:13;;;;;;;2.55;0.88;;;24.20;52.00;;;;;;20273451;28;80545;-71
2021/07/06 16:21:15;;;;;;;4.03;1.13;;;24.40;52.00;;;;;;20233498;28;80198;-71
2021/07/06 16:31:16;;;;;;;;;;;24.50;50.90;;;;;;20222860;28;80725;-73
2021/07/06 16:41:23;;;;;;;2.83;0.53;;;24.30;48.90;;;;;;20256643;28;80568;-71
2021/07/06 18:04:01;;;;;;;2.92;0.60;;;23.00;50.90;;;;;;20077404;28;81919;-72
2021/07/06 18:14:02;;;;;;;2.58;1.17;;;23.00;51.80;;;;;;20227091;28;80669;-71
2021/07/06 18:24:04;;;;;;;2.00;0.40;;;23.10;52.00;;;;;;20230889;28;81208;-70
2021/07/06 18:34:08;;;;;;;;;;;23.00;51.90;;;;;;20232578;28;81250;-71
2021/07/06 18:44:15;;;;;;;1.20;0.50;;;23.00;51.70;;;;;;20249063;28;82816;-69
2021/07/06 18:54:17;;;;;;;4.82;0.88;;;22.90;51.30;;;;;;20217523;28;80985;-69
2021/07/06 19:04:19;;;;;;;;;;;22.80;51.90;;;;;;20205323;28;80972;-69
2021/07/06 19:14:20;;;;;;;7.97;5.13;;;22.80;50.70;;;;;;20221133;28;80602;-70
2021/07/06 19:24:39;;;;;;;7.70;5.90;;;22.70;50.80;;;;;;20205790;28;80158;-70
2021/07/06 19:34:40;;;;;;;42.53;28.45;;;22.60;49.30;;;;;;20232556;28;80566;-70
2021/07/06 19:44:42;;;;;;;20.27;13.85;;;22.60;47.50;;;;;;20219351;28;83050;-70
2021/07/06 19:54:45;;;;;;;0.93;0.40;;;22.50;47.30;;;;;;20200784;28;84117;-67
2021/07/06 20:04:48;;;;;;;117.25;90.68;;;22.50;47.10;;;;;;20208476;28;81982;-68
2021/07/06 20:14:50;;;;;;;2.38;0.90;;;22.40;47.20;;;;;;20214487;28;83033;-66
2021/07/06 20:24:51;;;;;;;2.50;0.90;;;22.30;46.40;;;;;;20189954;28;83260;-67
2021/07/06 20:34:53;;;;;;;20.30;12.45;;;22.20;45.80;;;;;;20220664;28;81553;-66
2021/07/06 20:44:56;;;;;;;1.77;0.90;;;22.10;45.70;;;;;;20212456;28;83716;-65
2021/07/06 20:55:00;;;;;;;1.70;0.80;;;22.10;45.60;;;;;;20193760;28;83040;-66
2021/07/06 21:05:02;;;;;;;2.40;0.52;;;21.90;44.90;;;;;;20207107;28;80912;-65
2021/07/06 21:15:05;;;;;;;3.28;0.73;;;21.90;43.70;;;;;;20203990;28;80547;-66
2021/07/06 21:25:07;;;;;;;11.77;6.97;;;21.90;43.30;;;;;;20200514;28;81169;-66
2021/07/06 21:35:10;;;;;;;;;;;21.80;42.80;;;;;;20222139;28;80746;-64
2021/07/06 21:45:12;;;;;;;1.30;0.57;;;21.70;43.00;;;;;;20212907;28;81071;-68
2021/07/06 21:55:14;;;;;;;4.55;0.60;;;21.60;44.10;;;;;;20221638;28;80549;-69
2021/07/06 22:05:15;;;;;;;1.80;0.43;;;21.40;44.60;;;;;;20203696;28;80746;-67
2021/07/06 22:15:18;;;;;;;3.03;0.88;;;21.30;44.80;;;;;;20217347;28;80002;-69
2021/07/06 22:25:21;;;;;;;3.22;1.05;;;21.10;45.30;;;;;;20204540;28;81664;-68
2021/07/06 22:35:23;;;;;;;4.25;0.85;;;21.00;46.10;;;;;;20204429;28;80838;-70
2021/07/06 22:45:26;;;;;;;5.23;0.83;;;20.90;46.60;;;;;;20230814;28;80357;-68
2021/07/06 22:55:28;;;;;;;4.80;1.10;;;20.60;48.00;;;;;;20235855;28;81302;-70
2021/07/06 23:05:29;;;;;;;1.60;0.60;;;20.50;48.80;;;;;;20234581;28;82691;-68
2021/07/06 23:15:31;;;;;;;1.90;0.77;;;20.20;49.50;;;;;;20233206;28;80972;-68
2021/07/06 23:25:33;;;;;;;2.70;1.13;;;20.00;50.20;;;;;;20229748;28;81106;-66
2021/07/06 23:35:35;;;;;;;4.03;1.17;;;20.00;50.90;;;;;;20212105;28;80740;-67
2021/07/06 23:45:36;;;;;;;2.17;0.73;;;20.00;50.60;;;;;;20233578;28;80970;-68
2021/07/06 23:55:38;;;;;;;4.73;1.30;;;20.00;51.00;;;;;;20213021;28;80237;-67
